Time;durP1;ratioP1;P1;durP2;ratioP2;P2;SDS_P1;SDS_P2;PMS_P1;PMS_P2;Temp;Humidity;BMP_temperature;BMP_pressure;BME280_temperature;BME280_humidity;BME280_pressure;Samples;Min_cycle;Max_cycle;Signal;HPM_P1;HPM_P2
2022/03/01 00:01:09;;;;;;;0.30;0.30;;;2.40;99.90;;;;;;5093500;28;20097;-74
2022/03/01 00:03:35;;;;;;;0.30;0.30;;;2.30;99.90;;;;;;5093369;28;20051;-76
2022/03/01 00:06:01;;;;;;;0.30;0.30;;;2.20;99.90;;;;;;5093341;28;20051;-74
2022/03/01 00:08:26;;;;;;;0.30;0.30;;;2.60;99.90;;;;;;5096109;28;20044;-72
2022/03/01 00:10:52;;;;;;;0.30;0.30;;;2.20;99.90;;;;;;5097276;28;20040;-75
2022/03/01 00:13:17;;;;;;;0.30;0.30;;;2.10;99.90;;;;;;5097265;28;20064;-74
2022/03/01 00:15:43;;;;;;;0.30;0.30;;;2.10;99.90;;;;;;5097218;28;20067;-73
2022/03/01 00:18:08;;;;;;;0.30;0.30;;;2.10;99.90;;;;;;5097134;28;20085;-74
2022/03/01 00:20:34;;;;;;;0.30;0.30;;;2.10;99.90;;;;;;5097122;28;20334;-72
2022/03/01 00:23:00;;;;;;;0.30;0.30;;;2.10;99.90;;;;;;5097023;28;20066;-75
2022/03/01 00:25:25;;;;;;;0.30;0.30;;;2.10;99.90;;;;;;5097055;28;20104;-73
2022/03/01 00:27:51;;;;;;;0.30;0.30;;;2.00;99.90;;;;;;5097019;28;20147;-76
2022/03/01 00:30:17;;;;;;;0.30;0.30;;;2.00;99.90;;;;;;5097096;28;20047;-73
2022/03/01 00:32:42;;;;;;;0.32;0.32;;;1.90;99.90;;;;;;5096863;28;20083;-75
2022/03/01 00:35:08;;;;;;;0.40;0.40;;;1.90;99.90;;;;;;5096753;28;20048;-75
2022/03/01 00:37:33;;;;;;;0.30;0.30;;;1.90;99.90;;;;;;5096784;28;20055;-73
2022/03/01 00:39:59;;;;;;;0.30;0.30;;;1.90;99.90;;;;;;5097082;28;20082;-74
2022/03/01 00:42:24;;;;;;;0.30;0.30;;;1.80;99.90;;;;;;5096459;28;20040;-71
2022/03/01 00:44:50;;;;;;;0.30;0.30;;;1.70;99.90;;;;;;5096593;28;20050;-75
2022/03/01 00:47:16;;;;;;;0.30;0.30;;;1.70;99.90;;;;;;5096645;28;20147;-75
2022/03/01 00:49:41;;;;;;;0.40;0.40;;;1.60;99.90;;;;;;5096646;28;20040;-73
2022/03/01 00:52:08;;;;;;;0.30;0.30;;;1.60;99.90;;;;;;5096524;28;20044;-76
2022/03/01 00:54:33;;;;;;;0.30;0.30;;;1.60;99.90;;;;;;5096520;28;20048;-75
2022/03/01 00:56:59;;;;;;;0.30;0.30;;;1.50;99.90;;;;;;5096748;28;20413;-72
2022/03/01 00:59:24;;;;;;;0.30;0.30;;;1.50;99.90;;;;;;5096320;28;20040;-73
2022/03/01 01:01:50;;;;;;;0.30;0.30;;;1.50;99.90;;;;;;5096239;28;20482;-75
2022/03/01 01:04:15;;;;;;;0.38;0.38;;;0.80;99.90;;;;;;5096434;28;20036;-74
2022/03/01 01:06:41;;;;;;;0.30;0.30;;;1.40;99.90;;;;;;5096244;28;20051;-73
2022/03/01 01:09:08;;;;;;;0.30;0.30;;;1.30;99.90;;;;;;5096196;28;20047;-72
2022/03/01 01:11:34;;;;;;;0.30;0.30;;;1.40;99.90;;;;;;5096038;28;20052;-73
2022/03/01 01:13:59;;;;;;;0.30;0.30;;;1.30;99.90;;;;;;5096119;28;20044;-73
2022/03/01 01:16:25;;;;;;;0.30;0.30;;;1.30;99.90;;;;;;5096135;28;20178;-73
2022/03/01 01:18:50;;;;;;;0.30;0.30;;;1.30;99.90;;;;;;5095457;28;20047;-73
2022/03/01 01:21:16;;;;;;;0.30;0.30;;;1.30;99.90;;;;;;5095798;28;20052;-73
2022/03/01 01:23:42;;;;;;;0.30;0.30;;;1.20;99.90;;;;;;5095936;28;20468;-73
2022/03/01 01:26:08;;;;;;;0.30;0.30;;;1.20;99.90;;;;;;5095944;28;20392;-74
2022/03/01 01:28:33;;;;;;;0.30;0.30;;;1.20;99.90;;;;;;5095933;28;20434;-72
2022/03/01 01:30:59;;;;;;;0.30;0.30;;;1.20;99.90;;;;;;5095836;28;20048;-74
2022/03/01 01:33:25;;;;;;;0.30;0.30;;;1.20;99.90;;;;;;5095748;28;20369;-72
2022/03/01 01:35:50;;;;;;;0.30;0.30;;;1.20;99.90;;;;;;5095696;28;20126;-74
2022/03/01 01:38:16;;;;;;;0.30;0.30;;;1.30;99.90;;;;;;5095672;28;20404;-76
2022/03/01 01:40:41;;;;;;;0.40;0.40;;;1.50;99.90;;;;;;5095597;28;20193;-75
2022/03/01 01:43:07;;;;;;;0.30;0.30;;;1.30;99.90;;;;;;5095466;28;20082;-74
2022/03/01 01:45:33;;;;;;;0.40;0.40;;;1.30;99.90;;;;;;5095474;28;20074;-72
2022/03/01 01:48:02;;;;;;;0.40;0.40;;;1.30;99.90;;;;;;5095707;28;20044;-74
2022/03/01 01:50:30;;;;;;;0.30;0.30;;;1.20;99.90;;;;;;5095401;28;20040;-75
2022/03/01 01:52:57;;;;;;;0.40;0.40;;;1.20;99.90;;;;;;5095424;28;20079;-75
2022/03/01 01:55:25;;;;;;;0.40;0.40;;;1.10;99.90;;;;;;5095364;28;20054;-72
2022/03/01 01:57:51;;;;;;;0.30;0.30;;;1.20;99.90;;;;;;5095599;28;20388;-72
2022/03/01 02:00:17;;;;;;;0.40;0.40;;;1.10;99.90;;;;;;5095282;28;20157;-72
2022/03/01 02:02:43;;;;;;;0.30;0.30;;;1.10;99.90;;;;;;5095095;28;20036;-74
2022/03/01 02:05:10;;;;;;;0.40;0.40;;;1.00;99.90;;;;;;5094202;28;20051;-76
2022/03/01 02:07:36;;;;;;;0.30;0.30;;;1.10;99.90;;;;;;5095166;28;20378;-75
2022/03/01 02:10:04;;;;;;;0.30;0.30;;;1.00;99.90;;;;;;5095476;28;20122;-73
2022/03/01 02:12:30;;;;;;;0.40;0.40;;;1.00;99.90;;;;;;5094665;28;20060;-72
2022/03/01 02:14:55;;;;;;;0.30;0.30;;;0.90;99.90;;;;;;5095012;28;20381;-72
2022/03/01 02:17:21;;;;;;;0.40;0.40;;;0.90;99.90;;;;;;5094866;28;20519;-75
2022/03/01 02:19:51;;;;;;;0.40;0.40;;;0.90;99.90;;;;;;5094819;28;20044;-74
2022/03/01 02:22:18;;;;;;;0.40;0.40;;;0.80;99.90;;;;;;5094776;28;20047;-75
2022/03/01 02:24:44;;;;;;;0.30;0.30;;;0.80;99.90;;;;;;5094874;28;20044;-74
2022/03/01 02:27:09;;;;;;;0.30;0.30;;;0.80;99.90;;;;;;5095044;28;20067;-74
2022/03/01 02:29:35;;;;;;;0.40;0.40;;;0.80;99.90;;;;;;5094806;28;20412;-73
2022/03/01 02:32:05;;;;;;;0.32;0.32;;;0.80;99.90;;;;;;5093593;28;20391;-75
2022/03/01 02:34:31;;;;;;;0.40;0.40;;;0.70;99.90;;;;;;5094529;28;20097;-72
2022/03/01 02:36:56;;;;;;;0.38;0.38;;;0.70;99.90;;;;;;5094620;28;20048;-72
2022/03/01 02:39:22;;;;;;;0.30;0.30;;;0.80;99.90;;;;;;5094818;28;20055;-75
2022/03/01 02:41:48;;;;;;;0.40;0.40;;;0.70;99.90;;;;;;5094408;28;20043;-73
2022/03/01 02:44:14;;;;;;;0.30;0.30;;;0.70;99.90;;;;;;5094459;28;20061;-76
2022/03/01 02:46:40;;;;;;;0.30;0.30;;;0.70;99.90;;;;;;5094370;28;20097;-76
2022/03/01 02:49:07;;;;;;;0.40;0.40;;;0.70;99.90;;;;;;5094120;28;20101;-72
2022/03/01 02:51:34;;;;;;;0.40;0.40;;;0.70;99.90;;;;;;5094771;28;20048;-75
2022/03/01 02:53:59;;;;;;;0.40;0.40;;;0.70;99.90;;;;;;5094574;28;20134;-75
2022/03/01 02:56:25;;;;;;;0.35;0.35;;;0.70;99.90;;;;;;5094295;28;20542;-73
2022/03/01 02:58:51;;;;;;;0.40;0.40;;;0.70;99.90;;;;;;5094199;28;20039;-73
2022/03/01 03:01:17;;;;;;;0.40;0.40;;;0.70;99.90;;;;;;5094174;28;20044;-75
2022/03/01 03:03:43;;;;;;;0.35;0.35;;;0.60;99.90;;;;;;5094065;28;20040;-73
2022/03/01 03:06:09;;;;;;;0.40;0.40;;;0.50;99.90;;;;;;5094086;28;20396;-73
2022/03/01 03:08:34;;;;;;;0.40;0.40;;;0.70;99.90;;;;;;5093796;28;20067;-75
2022/03/01 03:11:01;;;;;;;0.40;0.40;;;0.70;99.90;;;;;;5093704;28;20048;-76
2022/03/01 03:13:27;;;;;;;0.40;0.40;;;0.80;99.90;;;;;;5092657;28;20060;-73
2022/03/01 03:15:53;;;;;;;0.40;0.40;;;0.80;99.90;;;;;;5093980;28;20066;-73
2022/03/01 03:18:18;;;;;;;0.40;0.40;;;0.80;99.90;;;;;;5093850;28;20036;-74
2022/03/01 03:20:44;;;;;;;0.30;0.30;;;0.90;99.90;;;;;;5093939;28;20044;-74
2022/03/01 03:23:11;;;;;;;0.40;0.40;;;0.80;99.90;;;;;;5093640;28;20380;-73
2022/03/01 03:25:37;;;;;;;0.30;0.30;;;0.70;99.90;;;;;;5093849;28;20209;-73
2022/03/01 03:28:03;;;;;;;0.30;0.30;;;0.70;99.90;;;;;;5093900;28;20282;-74
2022/03/01 03:30:29;;;;;;;0.40;0.40;;;0.60;99.90;;;;;;5093797;28;20044;-74
2022/03/01 03:32:54;;;;;;;0.30;0.30;;;0.60;99.90;;;;;;5093760;28;20545;-72
2022/03/01 03:35:20;;;;;;;0.40;0.40;;;0.50;99.90;;;;;;5093827;28;20048;-74
2022/03/01 03:37:46;;;;;;;0.40;0.40;;;1.80;99.90;;;;;;5093670;28;20036;-73
2022/03/01 03:40:12;;;;;;;0.30;0.30;;;0.40;99.90;;;;;;5093769;28;20056;-74
2022/03/01 03:42:38;;;;;;;0.40;0.40;;;0.40;99.90;;;;;;5094977;28;20044;-72
2022/03/01 03:45:05;;;;;;;0.40;0.40;;;0.40;99.90;;;;;;5097957;28;20048;-73
2022/03/01 03:47:31;;;;;;;0.40;0.40;;;0.40;99.90;;;;;;5097758;28;20083;-72
2022/03/01 03:49:57;;;;;;;0.38;0.38;;;0.30;99.90;;;;;;5097753;28;20507;-75
2022/03/01 03:52:22;;;;;;;0.40;0.40;;;0.30;99.90;;;;;;5097705;28;20036;-73
2022/03/01 03:54:50;;;;;;;0.40;0.40;;;0.30;99.90;;;;;;5097199;28;20391;-75
2022/03/01 03:57:15;;;;;;;;;;;0.20;99.90;;;;;;5097990;28;20040;-72
2022/03/01 03:59:41;;;;;;;0.40;0.40;;;0.20;99.90;;;;;;5096649;28;19927;-74
2022/03/01 04:02:07;;;;;;;0.30;0.30;;;0.20;99.90;;;;;;5097432;28;20066;-75
2022/03/01 04:04:33;;;;;;;0.30;0.30;;;0.20;99.90;;;;;;5097491;28;20069;-74
2022/03/01 04:06:59;;;;;;;0.40;0.40;;;0.20;99.90;;;;;;5097474;28;20048;-74
2022/03/01 04:09:25;;;;;;;0.40;0.40;;;0.20;99.90;;;;;;5097417;28;20377;-71
2022/03/01 04:11:51;;;;;;;0.40;0.40;;;0.20;99.90;;;;;;5097360;28;20056;-74
2022/03/01 04:14:19;;;;;;;0.40;0.40;;;0.30;99.90;;;;;;5097311;28;20058;-75
2022/03/01 04:16:46;;;;;;;0.40;0.40;;;0.20;99.90;;;;;;5097200;28;20130;-75
2022/03/01 04:19:12;;;;;;;0.40;0.40;;;0.30;99.90;;;;;;5097687;28;20138;-74
2022/03/01 04:21:39;;;;;;;0.40;0.40;;;0.30;99.90;;;;;;5097069;28;20048;-75
2022/03/01 04:24:06;;;;;;;0.30;0.30;;;0.30;99.90;;;;;;5097113;28;20056;-74
2022/03/01 04:26:32;;;;;;;0.40;0.40;;;0.30;99.90;;;;;;5097107;28;20040;-74
2022/03/01 04:28:57;;;;;;;0.40;0.40;;;0.30;99.90;;;;;;5096949;28;20091;-73
2022/03/01 04:31:23;;;;;;;0.40;0.40;;;0.30;99.90;;;;;;5096986;28;20051;-73
2022/03/01 04:33:49;;;;;;;0.40;0.40;;;0.30;99.90;;;;;;5096872;28;20040;-73
2022/03/01 04:36:15;;;;;;;0.40;0.40;;;0.40;99.90;;;;;;5096756;28;20044;-72
2022/03/01 04:38:41;;;;;;;0.40;0.40;;;0.40;99.90;;;;;;5096804;28;20530;-73
2022/03/01 04:41:06;;;;;;;0.40;0.40;;;0.40;99.90;;;;;;5096805;28;20131;-74
2022/03/01 04:43:32;;;;;;;0.40;0.40;;;0.40;99.90;;;;;;5096707;28;20395;-72
2022/03/01 04:45:58;;;;;;;0.30;0.30;;;0.50;99.90;;;;;;5096773;28;20062;-73
2022/03/01 04:48:24;;;;;;;0.40;0.40;;;0.50;99.90;;;;;;5096589;28;20582;-74
2022/03/01 04:50:51;;;;;;;0.30;0.30;;;0.50;99.90;;;;;;5096521;28;20040;-72
2022/03/01 04:53:17;;;;;;;0.40;0.40;;;0.60;99.90;;;;;;5096397;28;20044;-73
2022/03/01 04:55:43;;;;;;;0.38;0.38;;;0.50;99.90;;;;;;5095467;28;20044;-74
2022/03/01 04:58:09;;;;;;;0.40;0.40;;;0.50;99.90;;;;;;5096605;28;20051;-72
2022/03/01 05:00:35;;;;;;;0.40;0.40;;;0.60;99.90;;;;;;5096565;28;20066;-74
2022/03/01 05:03:00;;;;;;;0.40;0.40;;;0.50;99.90;;;;;;5096696;28;20047;-74
2022/03/01 05:05:26;;;;;;;0.40;0.40;;;0.50;99.90;;;;;;5096340;28;20059;-73
2022/03/01 05:07:52;;;;;;;0.40;0.40;;;0.60;99.90;;;;;;5096190;28;20036;-72
2022/03/01 05:10:19;;;;;;;0.40;0.40;;;0.60;99.90;;;;;;5096245;28;20047;-70
2022/03/01 05:12:48;;;;;;;0.40;0.40;;;0.70;99.90;;;;;;5096283;28;20468;-71
2022/03/01 05:15:14;;;;;;;0.30;0.30;;;0.60;99.90;;;;;;5096276;28;20086;-74
2022/03/01 05:17:40;;;;;;;0.40;0.40;;;0.60;99.90;;;;;;5096046;28;20491;-73
2022/03/01 05:20:07;;;;;;;0.40;0.40;;;0.60;99.90;;;;;;5096660;28;20062;-73
2022/03/01 05:22:33;;;;;;;0.40;0.40;;;0.60;99.90;;;;;;5096348;28;20040;-71
2022/03/01 05:25:01;;;;;;;0.40;0.40;;;0.70;99.90;;;;;;5095953;28;20040;-73
2022/03/01 05:27:27;;;;;;;0.30;0.30;;;0.70;99.90;;;;;;5095920;28;20051;-72
2022/03/01 05:29:53;;;;;;;0.40;0.40;;;0.70;99.90;;;;;;5095910;28;20048;-75
2022/03/01 05:32:18;;;;;;;0.40;0.40;;;0.70;99.90;;;;;;5095843;28;20040;-74
2022/03/01 05:34:44;;;;;;;0.30;0.30;;;0.70;99.90;;;;;;5096253;28;20048;-74
2022/03/01 05:37:10;;;;;;;0.30;0.30;;;0.90;99.90;;;;;;5095302;28;20044;-74
2022/03/01 05:39:36;;;;;;;0.40;0.40;;;0.70;99.90;;;;;;5095681;28;20047;-74
2022/03/01 05:42:02;;;;;;;0.40;0.40;;;0.80;99.90;;;;;;5095621;28;20036;-74
2022/03/01 05:44:27;;;;;;;0.40;0.40;;;0.80;99.90;;;;;;5095569;28;20048;-72
2022/03/01 05:46:53;;;;;;;0.40;0.40;;;0.80;99.90;;;;;;5095480;28;20040;-74
2022/03/01 05:49:18;;;;;;;0.30;0.30;;;0.90;99.90;;;;;;5094284;28;20109;-72
2022/03/01 05:51:44;;;;;;;0.40;0.40;;;0.90;99.90;;;;;;5095458;28;20044;-71
2022/03/01 05:54:09;;;;;;;0.40;0.40;;;0.90;99.90;;;;;;5095384;28;20059;-72
2022/03/01 05:56:35;;;;;;;0.35;0.35;;;1.00;99.90;;;;;;5095319;28;20050;-71
2022/03/01 05:59:01;;;;;;;0.30;0.30;;;0.90;99.90;;;;;;5095359;28;20051;-71
2022/03/01 06:01:26;;;;;;;0.40;0.40;;;0.90;99.90;;;;;;5095318;28;20052;-71
2022/03/01 06:03:52;;;;;;;0.30;0.30;;;0.90;99.90;;;;;;5095128;28;20040;-74
2022/03/01 06:06:19;;;;;;;0.40;0.40;;;0.90;99.90;;;;;;5094552;28;20094;-75
2022/03/01 06:08:44;;;;;;;0.40;0.40;;;0.90;99.90;;;;;;5095069;28;20442;-75
2022/03/01 06:11:10;;;;;;;0.40;0.40;;;0.90;99.90;;;;;;5095142;28;20042;-74
2022/03/01 06:13:37;;;;;;;0.40;0.40;;;0.90;99.90;;;;;;5095108;28;20393;-73
2022/03/01 06:16:04;;;;;;;0.40;0.40;;;0.90;99.90;;;;;;5094816;28;20055;-73
2022/03/01 06:18:30;;;;;;;0.40;0.40;;;0.90;99.90;;;;;;5094947;28;20143;-73
2022/03/01 06:20:56;;;;;;;0.40;0.40;;;0.90;99.90;;;;;;5094915;28;20136;-72
2022/03/01 06:23:21;;;;;;;0.40;0.40;;;0.90;99.90;;;;;;5094831;28;20058;-73
2022/03/01 06:25:47;;;;;;;0.40;0.40;;;0.90;99.90;;;;;;5095029;28;20039;-73
2022/03/01 06:28:13;;;;;;;0.40;0.40;;;0.90;99.90;;;;;;5094712;28;20036;-75
2022/03/01 06:30:38;;;;;;;0.40;0.40;;;0.90;99.90;;;;;;5094612;28;20051;-73
2022/03/01 06:33:04;;;;;;;0.30;0.30;;;0.90;99.90;;;;;;5094636;28;20051;-73
2022/03/01 06:35:30;;;;;;;0.40;0.40;;;0.80;99.90;;;;;;5094643;28;20044;-73
2022/03/01 06:37:56;;;;;;;0.30;0.30;;;0.80;99.90;;;;;;5094632;28;20206;-74
2022/03/01 06:40:23;;;;;;;0.40;0.40;;;0.30;99.90;;;;;;5094515;28;20043;-71
2022/03/01 06:42:48;;;;;;;0.30;0.30;;;0.00;99.90;;;;;;5094479;28;20388;-73
2022/03/01 06:45:14;;;;;;;0.40;0.40;;;0.80;99.90;;;;;;5094427;28;20062;-75
2022/03/01 06:47:41;;;;;;;0.40;0.40;;;0.80;99.90;;;;;;5094884;28;20072;-76
2022/03/01 06:50:08;;;;;;;0.40;0.40;;;0.70;99.90;;;;;;5094384;28;20054;-74
2022/03/01 06:52:35;;;;;;;;;;;0.90;99.90;;;;;;5094867;28;20061;-75
2022/03/01 06:55:02;;;;;;;0.40;0.40;;;0.80;99.90;;;;;;5094571;28;20015;-74
2022/03/01 06:57:28;;;;;;;0.40;0.40;;;0.80;99.90;;;;;;5094400;28;20511;-73
2022/03/01 06:59:53;;;;;;;0.40;0.40;;;0.80;99.90;;;;;;5094114;28;20129;-70
2022/03/01 07:02:20;;;;;;;0.40;0.40;;;0.80;99.90;;;;;;5094919;28;20048;-72
2022/03/01 07:04:46;;;;;;;0.40;0.40;;;0.80;99.90;;;;;;5094617;28;20047;-73
2022/03/01 07:07:11;;;;;;;0.40;0.40;;;0.90;99.90;;;;;;5094412;28;20048;-71
2022/03/01 07:09:37;;;;;;;0.40;0.40;;;1.00;99.90;;;;;;5094053;28;20035;-73
2022/03/01 07:12:03;;;;;;;0.40;0.40;;;1.10;99.90;;;;;;5093857;28;20101;-74
2022/03/01 07:14:28;;;;;;;0.40;0.40;;;1.10;99.90;;;;;;5092809;28;20043;-74
2022/03/01 07:16:54;;;;;;;0.40;0.40;;;1.20;99.90;;;;;;5093141;28;20093;-75
2022/03/01 07:19:20;;;;;;;0.40;0.40;;;1.30;99.90;;;;;;5093818;28;20048;-76
2022/03/01 07:21:45;;;;;;;0.40;0.40;;;1.40;99.90;;;;;;5093831;28;20506;-73
2022/03/01 07:24:11;;;;;;;0.40;0.40;;;1.40;99.90;;;;;;5093985;28;20036;-73
2022/03/01 07:26:36;;;;;;;0.30;0.30;;;1.50;99.90;;;;;;5093894;28;20127;-76
2022/03/01 07:29:02;;;;;;;0.38;0.38;;;1.60;99.90;;;;;;5093812;28;20131;-72
2022/03/01 07:31:28;;;;;;;0.40;0.40;;;1.70;99.90;;;;;;5093926;28;20381;-73
2022/03/01 07:33:54;;;;;;;0.40;0.40;;;1.80;99.90;;;;;;5092003;28;20043;-76
2022/03/01 07:36:20;;;;;;;0.40;0.40;;;1.90;99.90;;;;;;5093248;28;20079;-73
2022/03/01 07:38:45;;;;;;;0.30;0.30;;;2.00;99.90;;;;;;5093361;28;20089;-72
2022/03/01 07:41:11;;;;;;;0.40;0.40;;;2.10;99.90;;;;;;5093302;28;20047;-75
2022/03/01 07:43:36;;;;;;;0.32;0.32;;;2.20;99.90;;;;;;5093052;28;20047;-70
2022/03/01 07:46:03;;;;;;;0.38;0.38;;;2.30;99.90;;;;;;5093006;28;20048;-73
2022/03/01 07:48:28;;;;;;;0.30;0.30;;;2.30;99.90;;;;;;5093440;28;20137;-73
2022/03/01 07:50:54;;;;;;;0.40;0.40;;;2.30;99.90;;;;;;5093439;28;20087;-72
2022/03/01 07:53:20;;;;;;;0.30;0.30;;;2.50;99.90;;;;;;5093290;28;20040;-71
2022/03/01 07:55:46;;;;;;;0.30;0.30;;;2.50;99.90;;;;;;5093344;28;20044;-72
2022/03/01 07:58:11;;;;;;;0.30;0.30;;;2.60;99.90;;;;;;5093437;28;20123;-73
2022/03/01 08:00:37;;;;;;;0.38;0.38;;;2.70;99.90;;;;;;5091953;28;20052;-71
2022/03/01 08:03:03;;;;;;;0.30;0.30;;;2.80;99.90;;;;;;5093306;28;20411;-70
2022/03/01 08:05:28;;;;;;;0.30;0.30;;;2.90;99.90;;;;;;5093165;28;20060;-73
2022/03/01 08:07:57;;;;;;;0.30;0.30;;;3.00;99.90;;;;;;5093272;28;20124;-72
2022/03/01 08:10:23;;;;;;;0.30;0.30;;;3.00;99.90;;;;;;5093421;28;20043;-72
2022/03/01 08:12:48;;;;;;;0.30;0.30;;;3.20;99.90;;;;;;5093112;28;20048;-72
2022/03/01 08:15:14;;;;;;;0.30;0.30;;;3.20;99.90;;;;;;5092760;28;20052;-71
2022/03/01 08:17:47;;;;;;;0.30;0.30;;;3.20;99.90;;;;;;5093112;28;20067;-73
2022/03/01 08:20:13;;;;;;;0.30;0.30;;;3.30;99.90;;;;;;5093131;28;20063;-71
2022/03/01 08:22:40;;;;;;;0.40;0.40;;;3.40;99.90;;;;;;5093214;28;20040;-69
2022/03/01 08:25:06;;;;;;;;;;;3.40;99.90;;;;;;5093294;28;20476;-71
2022/03/01 08:27:31;;;;;;;0.30;0.30;;;3.50;99.90;;;;;;5092998;28;20057;-72
2022/03/01 08:29:57;;;;;;;0.30;0.30;;;3.50;99.90;;;;;;5094394;28;20047;-74
2022/03/01 08:32:22;;;;;;;0.30;0.30;;;3.50;99.90;;;;;;5096667;28;20124;-75
2022/03/01 08:34:48;;;;;;;0.30;0.30;;;3.60;99.90;;;;;;5096662;28;20048;-75
2022/03/01 08:37:13;;;;;;;0.30;0.30;;;3.60;99.90;;;;;;5096495;28;20048;-77
2022/03/01 08:39:39;;;;;;;0.30;0.30;;;3.70;99.90;;;;;;5095318;28;20052;-74
2022/03/01 08:42:04;;;;;;;0.30;0.30;;;3.70;99.90;;;;;;5096571;28;20094;-75
2022/03/01 08:44:30;;;;;;;0.30;0.30;;;3.70;99.90;;;;;;5095048;28;20044;-73
2022/03/01 08:46:56;;;;;;;0.30;0.30;;;3.70;99.90;;;;;;5096655;28;20052;-74
2022/03/01 08:49:21;;;;;;;0.30;0.30;;;3.70;99.90;;;;;;5096746;28;20044;-72
2022/03/01 08:51:47;;;;;;;0.30;0.30;;;3.70;99.90;;;;;;5096357;28;20441;-75
2022/03/01 08:54:13;;;;;;;0.30;0.30;;;3.70;99.90;;;;;;5096197;28;20392;-74
2022/03/01 08:56:38;;;;;;;0.30;0.30;;;3.70;99.90;;;;;;5096089;28;20494;-74
2022/03/01 08:59:05;;;;;;;0.30;0.30;;;3.70;99.90;;;;;;5096091;28;20044;-74
2022/03/01 09:01:31;;;;;;;0.30;0.30;;;3.80;99.90;;;;;;5096045;28;20500;-74
2022/03/01 09:03:57;;;;;;;0.30;0.30;;;3.80;99.90;;;;;;5096017;28;20047;-76
2022/03/01 09:06:23;;;;;;;0.30;0.30;;;3.90;99.90;;;;;;5095971;28;20476;-73
2022/03/01 09:08:48;;;;;;;0.30;0.30;;;4.00;99.90;;;;;;5095953;28;20093;-75
2022/03/01 09:11:14;;;;;;;0.30;0.30;;;4.00;99.90;;;;;;5095858;28;20403;-75
2022/03/01 09:13:40;;;;;;;0.30;0.30;;;4.00;99.90;;;;;;5095929;28;20052;-77
2022/03/01 09:16:07;;;;;;;0.30;0.30;;;4.00;99.90;;;;;;5095996;28;20071;-76
2022/03/01 09:18:34;;;;;;;0.30;0.30;;;4.10;99.90;;;;;;5095162;28;20079;-77
2022/03/01 09:21:00;;;;;;;;;;;4.20;99.90;;;;;;5096360;28;20438;-76
2022/03/01 09:23:26;;;;;;;0.30;0.30;;;4.40;99.90;;;;;;5095808;28;19920;-75
2022/03/01 09:25:51;;;;;;;0.30;0.30;;;4.50;99.90;;;;;;5095860;28;20040;-75
2022/03/01 09:28:17;;;;;;;0.30;0.30;;;4.70;99.90;;;;;;5095748;28;20048;-76
2022/03/01 09:30:44;;;;;;;0.30;0.30;;;4.80;99.90;;;;;;5095762;28;20454;-74
2022/03/01 09:33:09;;;;;;;0.30;0.30;;;4.90;99.90;;;;;;5095742;28;20472;-76
2022/03/01 09:35:35;;;;;;;0.30;0.30;;;4.90;99.90;;;;;;5095706;28;20051;-74
2022/03/01 09:38:01;;;;;;;0.30;0.30;;;5.00;99.90;;;;;;5095517;28;20044;-74
2022/03/01 09:40:27;;;;;;;0.30;0.30;;;5.00;99.90;;;;;;5094899;28;20047;-74
2022/03/01 09:42:53;;;;;;;0.30;0.30;;;5.10;99.90;;;;;;5095122;28;20044;-77
2022/03/01 09:45:19;;;;;;;0.30;0.30;;;5.30;99.90;;;;;;5095436;28;20040;-77
2022/03/01 09:47:46;;;;;;;0.30;0.30;;;5.40;99.90;;;;;;5095448;28;20044;-76
2022/03/01 09:50:12;;;;;;;0.30;0.30;;;5.50;99.90;;;;;;5095423;28;20044;-73
2022/03/01 09:52:38;;;;;;;0.30;0.30;;;5.60;99.90;;;;;;5095237;28;20081;-74
2022/03/01 09:55:05;;;;;;;0.30;0.30;;;5.60;99.90;;;;;;5095268;28;20404;-75
2022/03/01 09:57:30;;;;;;;;;;;5.70;99.90;;;;;;5095340;28;20052;-71
2022/03/01 09:59:56;;;;;;;0.30;0.30;;;5.80;99.90;;;;;;5095001;28;19924;-72
2022/03/01 10:02:33;;;;;;;0.30;0.30;;;5.90;99.90;;;;;;5094914;28;20032;-73
2022/03/01 10:04:58;;;;;;;0.30;0.30;;;6.20;99.90;;;;;;5094018;28;20040;-72
2022/03/01 10:07:26;;;;;;;0.30;0.30;;;6.30;99.90;;;;;;5094677;28;20044;-75
2022/03/01 10:09:53;;;;;;;0.30;0.30;;;6.40;99.90;;;;;;5094954;28;20404;-74
2022/03/01 10:12:26;;;;;;;0.30;0.30;;;6.40;99.90;;;;;;5094609;28;20058;-73
2022/03/01 10:15:06;;;;;;;0.30;0.30;;;6.50;99.90;;;;;;5095030;28;20456;-73
2022/03/01 10:17:34;;;;;;;0.30;0.30;;;6.60;99.90;;;;;;5074569;28;20082;-72
2022/03/01 10:20:02;;;;;;;0.20;0.20;;;6.70;99.90;;;;;;5074616;28;20127;-79
2022/03/01 10:22:28;;;;;;;0.30;0.30;;;6.70;99.90;;;;;;5074508;28;20091;-77
2022/03/01 10:24:53;;;;;;;0.30;0.30;;;6.70;99.90;;;;;;5056567;28;20080;-71
2022/03/01 10:27:28;;;;;;;0.30;0.30;;;6.70;99.90;;;;;;5074564;28;20056;-74
2022/03/01 10:29:54;;;;;;;0.20;0.20;;;6.70;99.90;;;;;;5073826;28;20408;-73
2022/03/01 10:32:19;;;;;;;0.30;0.30;;;6.70;99.90;;;;;;5074773;28;20032;-77
2022/03/01 10:35:07;;;;;;;0.30;0.30;;;6.70;99.90;;;;;;5073588;28;20033;-73
2022/03/01 10:37:36;;;;;;;0.30;0.30;;;6.80;99.90;;;;;;5074108;28;20056;-74
2022/03/01 10:40:15;;;;;;;0.30;0.30;;;6.80;99.90;;;;;;5073410;28;20057;-73
2022/03/01 10:42:41;;;;;;;0.20;0.20;;;6.90;99.90;;;;;;5073069;28;20123;-75
2022/03/01 10:45:11;;;;;;;0.30;0.30;;;7.00;99.90;;;;;;5074213;28;20045;-74
2022/03/01 10:47:38;;;;;;;0.20;0.20;;;7.00;99.90;;;;;;5074187;28;20127;-73
2022/03/01 10:50:09;;;;;;;0.20;0.20;;;7.10;99.90;;;;;;5074047;28;20059;-74
2022/03/01 10:52:39;;;;;;;0.30;0.30;;;7.10;99.90;;;;;;5073268;28;20085;-75
2022/03/01 10:55:05;;;;;;;0.30;0.30;;;7.20;99.90;;;;;;5074080;28;20083;-73
2022/03/01 10:57:31;;;;;;;0.30;0.30;;;7.20;99.90;;;;;;5074109;28;20041;-72
2022/03/01 10:59:57;;;;;;;0.22;0.22;;;7.30;99.90;;;;;;5073993;28;20166;-73
2022/03/01 11:02:23;;;;;;;0.20;0.20;;;7.30;99.90;;;;;;5073595;28;20044;-72
2022/03/01 11:04:50;;;;;;;0.22;0.22;;;7.40;99.90;;;;;;5073901;28;20545;-74
2022/03/01 11:07:16;;;;;;;0.20;0.20;;;7.50;99.90;;;;;;5073836;28;20135;-73
2022/03/01 11:09:44;;;;;;;0.20;0.20;;;7.60;99.90;;;;;;5072730;28;20134;-73
2022/03/01 11:12:13;;;;;;;0.30;0.30;;;7.70;99.90;;;;;;5073970;28;20404;-73
2022/03/01 11:15:01;;;;;;;0.20;0.20;;;7.80;99.90;;;;;;5073731;28;20177;-72
2022/03/01 11:17:40;;;;;;;;;;;7.90;99.90;;;;;;5074507;28;20458;-72
2022/03/01 11:20:26;;;;;;;0.30;0.30;;;7.90;99.90;;;;;;5073844;28;19921;-77
2022/03/01 11:23:13;;;;;;;0.20;0.20;;;8.10;99.90;;;;;;5073591;28;20037;-71
2022/03/01 11:25:46;;;;;;;0.20;0.20;;;8.10;99.90;;;;;;5073395;28;20561;-74
2022/03/01 11:28:13;;;;;;;0.20;0.20;;;8.20;99.90;;;;;;5073923;28;20052;-71
2022/03/01 11:30:45;;;;;;;0.30;0.30;;;8.20;99.90;;;;;;5073626;28;20044;-72
2022/03/01 11:33:11;;;;;;;0.20;0.20;;;8.30;99.90;;;;;;5073831;28;20099;-72
2022/03/01 11:35:41;;;;;;;0.20;0.20;;;8.40;99.90;;;;;;5073635;28;20041;-73
2022/03/01 11:38:08;;;;;;;0.30;0.30;;;8.40;99.90;;;;;;5073526;28;20182;-72
2022/03/01 11:40:39;;;;;;;0.20;0.20;;;8.50;99.90;;;;;;5072558;28;20150;-72
2022/03/01 11:43:13;;;;;;;0.20;0.20;;;8.70;99.90;;;;;;5072415;28;20141;-72
2022/03/01 11:45:43;;;;;;;0.20;0.20;;;8.70;99.90;;;;;;5073468;28;20083;-71
2022/03/01 11:48:16;;;;;;;0.20;0.20;;;8.80;99.90;;;;;;5073512;28;20048;-73
2022/03/01 11:50:54;;;;;;;0.20;0.20;;;8.90;99.90;;;;;;5073435;28;20045;-73
2022/03/01 11:53:19;;;;;;;0.20;0.20;;;8.90;99.90;;;;;;5073770;28;20048;-72
2022/03/01 11:55:49;;;;;;;0.20;0.20;;;8.90;99.90;;;;;;5073234;28;20056;-72
2022/03/01 11:58:16;;;;;;;0.20;0.20;;;8.90;99.90;;;;;;5072566;28;20388;-74
2022/03/01 12:00:42;;;;;;;0.20;0.20;;;8.90;99.90;;;;;;5073112;28;20067;-72
2022/03/01 12:03:14;;;;;;;0.30;0.30;;;8.90;99.90;;;;;;5073453;28;20055;-73
2022/03/01 12:05:40;;;;;;;0.20;0.20;;;8.90;99.90;;;;;;5077253;28;20082;-72
2022/03/01 12:08:09;;;;;;;0.20;0.20;;;8.90;99.90;;;;;;5076314;28;20071;-71
2022/03/01 12:10:35;;;;;;;0.20;0.20;;;8.80;99.90;;;;;;5077201;28;20051;-73
2022/03/01 12:13:07;;;;;;;0.20;0.20;;;8.80;99.90;;;;;;5076597;28;20092;-72
2022/03/01 12:15:37;;;;;;;0.20;0.20;;;8.80;99.90;;;;;;5077078;28;20058;-74
2022/03/01 12:18:16;;;;;;;0.20;0.20;;;8.80;99.90;;;;;;5076399;28;20124;-72
2022/03/01 12:20:44;;;;;;;0.20;0.20;;;8.80;99.90;;;;;;5077093;28;20133;-72
2022/03/01 12:23:11;;;;;;;0.20;0.20;;;8.90;99.90;;;;;;5077152;28;20040;-73
2022/03/01 12:25:39;;;;;;;0.20;0.20;;;8.90;99.90;;;;;;5076880;28;20134;-73
2022/03/01 12:28:07;;;;;;;0.20;0.20;;;8.90;99.90;;;;;;5076812;28;20040;-72
2022/03/01 12:30:39;;;;;;;0.20;0.20;;;9.00;99.90;;;;;;5076773;28;20052;-73
2022/03/01 12:33:11;;;;;;;0.20;0.20;;;9.00;99.90;;;;;;5076856;28;20044;-73
2022/03/01 12:35:36;;;;;;;0.20;0.20;;;9.00;99.90;;;;;;5077039;28;20053;-73
2022/03/01 12:38:12;;;;;;;0.20;0.20;;;9.00;99.90;;;;;;5076798;28;20135;-72
2022/03/01 12:40:40;;;;;;;0.20;0.20;;;9.00;99.90;;;;;;5076749;28;20051;-73
2022/03/01 12:43:11;;;;;;;0.20;0.20;;;9.00;99.90;;;;;;5076424;28;20048;-72
2022/03/01 12:45:44;;;;;;;0.20;0.20;;;9.00;99.90;;;;;;5076882;28;20400;-72
2022/03/01 12:48:13;;;;;;;0.20;0.20;;;9.10;99.90;;;;;;5076752;28;20044;-73
2022/03/01 12:50:52;;;;;;;0.20;0.20;;;9.10;99.90;;;;;;5076439;28;20059;-73
2022/03/01 12:53:20;;;;;;;0.20;0.20;;;9.10;99.90;;;;;;5076420;28;20076;-73
2022/03/01 12:55:48;;;;;;;0.20;0.20;;;9.10;99.90;;;;;;5076366;28;20080;-74